sensor_id;sensor_type;location;lat;lon;timestamp;temperature;humidity
68098;DHT22;54886;47.036;15.466;2023-11-21T00:01:15;5.51;82.63
68098;DHT22;54886;47.036;15.466;2023-11-21T00:03:40;5.51;82.18
68098;DHT22;54886;47.036;15.466;2023-11-21T00:06:06;5.51;82.11
68098;DHT22;54886;47.036;15.466;2023-11-21T00:08:35;5.47;82.23
68098;DHT22;54886;47.036;15.466;2023-11-21T00:11:00;5.49;82.36
68098;DHT22;54886;47.036;15.466;2023-11-21T00:13:26;5.49;81.85
68098;DHT22;54886;47.036;15.466;2023-11-21T00:15:52;5.51;81.82
68098;DHT22;54886;47.036;15.466;2023-11-21T00:18:17;5.48;81.34
68098;DHT22;54886;47.036;15.466;2023-11-21T00:20:43;5.48;81.44
68098;DHT22;54886;47.036;15.466;2023-11-21T00:23:09;5.42;83.19
68098;DHT22;54886;47.036;15.466;2023-11-21T00:25:34;5.44;82.18
68098;DHT22;54886;47.036;15.466;2023-11-21T00:28:00;5.38;82.95
68098;DHT22;54886;47.036;15.466;2023-11-21T00:30:27;5.44;81.78
68098;DHT22;54886;47.036;15.466;2023-11-21T00:32:54;5.44;81.55
68098;DHT22;54886;47.036;15.466;2023-11-21T00:35:19;5.44;81.61
68098;DHT22;54886;47.036;15.466;2023-11-21T00:37:45;5.44;81.77
68098;DHT22;54886;47.036;15.466;2023-11-21T00:40:10;5.39;82.23
68098;DHT22;54886;47.036;15.466;2023-11-21T00:42:36;5.38;81.82
68098;DHT22;54886;47.036;15.466;2023-11-21T00:45:01;5.38;82.92
68098;DHT22;54886;47.036;15.466;2023-11-21T00:47:28;5.39;81.73
68098;DHT22;54886;47.036;15.466;2023-11-21T00:49:54;5.38;82.90
68098;DHT22;54886;47.036;15.466;2023-11-21T00:52:19;5.37;82.10
68098;DHT22;54886;47.036;15.466;2023-11-21T00:54:44;5.35;83.19
68098;DHT22;54886;47.036;15.466;2023-11-21T00:57:10;5.34;82.42
68098;DHT22;54886;47.036;15.466;2023-11-21T00:59:37;5.38;83.21
68098;DHT22;54886;47.036;15.466;2023-11-21T01:02:02;5.37;83.34
68098;DHT22;54886;47.036;15.466;2023-11-21T01:04:30;5.35;83.83
68098;DHT22;54886;47.036;15.466;2023-11-21T01:06:57;5.37;83.16
68098;DHT22;54886;47.036;15.466;2023-11-21T01:09:22;5.35;83.36
68098;DHT22;54886;47.036;15.466;2023-11-21T01:11:47;5.39;83.39
68098;DHT22;54886;47.036;15.466;2023-11-21T01:14:13;5.41;82.78
68098;DHT22;54886;47.036;15.466;2023-11-21T01:16:38;5.38;83.27
68098;DHT22;54886;47.036;15.466;2023-11-21T01:19:04;5.38;84.14
68098;DHT22;54886;47.036;15.466;2023-11-21T01:21:29;5.37;83.08
68098;DHT22;54886;47.036;15.466;2023-11-21T01:23:55;5.39;83.48
68098;DHT22;54886;47.036;15.466;2023-11-21T01:26:21;5.39;83.47
68098;DHT22;54886;47.036;15.466;2023-11-21T01:28:46;5.38;83.82
68098;DHT22;54886;47.036;15.466;2023-11-21T01:31:14;5.38;83.17
68098;DHT22;54886;47.036;15.466;2023-11-21T01:33:40;5.41;83.01
68098;DHT22;54886;47.036;15.466;2023-11-21T01:36:05;5.42;82.97
68098;DHT22;54886;47.036;15.466;2023-11-21T01:38:31;5.44;82.73
68098;DHT22;54886;47.036;15.466;2023-11-21T01:40:57;5.41;82.18
68098;DHT22;54886;47.036;15.466;2023-11-21T01:43:22;5.42;83.07
68098;DHT22;54886;47.036;15.466;2023-11-21T01:45:48;5.42;82.83
68098;DHT22;54886;47.036;15.466;2023-11-21T01:48:14;5.45;82.90
68098;DHT22;54886;47.036;15.466;2023-11-21T01:50:41;5.47;83.00
68098;DHT22;54886;47.036;15.466;2023-11-21T01:53:07;5.45;83.82
68098;DHT22;54886;47.036;15.466;2023-11-21T01:55:33;5.48;82.43
68098;DHT22;54886;47.036;15.466;2023-11-21T01:57:59;5.49;82.75
68098;DHT22;54886;47.036;15.466;2023-11-21T02:00:25;5.51;82.98
68098;DHT22;54886;47.036;15.466;2023-11-21T02:02:53;5.49;83.61
68098;DHT22;54886;47.036;15.466;2023-11-21T02:05:19;5.55;82.57
68098;DHT22;54886;47.036;15.466;2023-11-21T02:07:45;5.54;83.46
68098;DHT22;54886;47.036;15.466;2023-11-21T02:10:14;5.55;83.75
68098;DHT22;54886;47.036;15.466;2023-11-21T02:12:41;5.56;83.65
68098;DHT22;54886;47.036;15.466;2023-11-21T02:15:08;5.59;83.68
68098;DHT22;54886;47.036;15.466;2023-11-21T02:17:41;5.60;84.39
68098;DHT22;54886;47.036;15.466;2023-11-21T02:20:12;5.63;84.18
68098;DHT22;54886;47.036;15.466;2023-11-21T02:22:41;5.66;83.90
68098;DHT22;54886;47.036;15.466;2023-11-21T02:25:08;5.69;84.19
68098;DHT22;54886;47.036;15.466;2023-11-21T02:27:33;5.69;83.86
68098;DHT22;54886;47.036;15.466;2023-11-21T02:29:58;5.68;84.13
68098;DHT22;54886;47.036;15.466;2023-11-21T02:32:26;5.69;83.19
68098;DHT22;54886;47.036;15.466;2023-11-21T02:34:51;5.70;82.19
68098;DHT22;54886;47.036;15.466;2023-11-21T02:37:17;5.68;82.49
68098;DHT22;54886;47.036;15.466;2023-11-21T02:39:42;5.69;83.18
68098;DHT22;54886;47.036;15.466;2023-11-21T02:42:08;5.68;83.53
68098;DHT22;54886;47.036;15.466;2023-11-21T02:44:33;5.69;83.67
68098;DHT22;54886;47.036;15.466;2023-11-21T02:47:00;5.69;83.70
68098;DHT22;54886;47.036;15.466;2023-11-21T02:49:25;5.72;83.18
68098;DHT22;54886;47.036;15.466;2023-11-21T02:51:53;5.70;83.48
68098;DHT22;54886;47.036;15.466;2023-11-21T02:54:20;5.72;82.79
68098;DHT22;54886;47.036;15.466;2023-11-21T02:56:47;5.72;82.84
68098;DHT22;54886;47.036;15.466;2023-11-21T02:59:12;5.69;83.20
68098;DHT22;54886;47.036;15.466;2023-11-21T03:01:38;5.70;83.20
68098;DHT22;54886;47.036;15.466;2023-11-21T03:04:03;5.70;83.38
68098;DHT22;54886;47.036;15.466;2023-11-21T03:06:29;5.72;83.17
68098;DHT22;54886;47.036;15.466;2023-11-21T03:08:54;5.76;83.00
68098;DHT22;54886;47.036;15.466;2023-11-21T03:11:19;5.72;82.75
68098;DHT22;54886;47.036;15.466;2023-11-21T03:13:45;5.72;82.77
68098;DHT22;54886;47.036;15.466;2023-11-21T03:16:11;5.73;82.35
68098;DHT22;54886;47.036;15.466;2023-11-21T03:18:40;5.77;82.78
68098;DHT22;54886;47.036;15.466;2023-11-21T03:21:06;5.77;83.23
68098;DHT22;54886;47.036;15.466;2023-11-21T03:23:34;5.82;83.68
68098;DHT22;54886;47.036;15.466;2023-11-21T03:25:59;5.82;83.61
68098;DHT22;54886;47.036;15.466;2023-11-21T03:28:25;5.83;83.52
68098;DHT22;54886;47.036;15.466;2023-11-21T03:30:52;5.87;83.62
68098;DHT22;54886;47.036;15.466;2023-11-21T03:33:17;5.87;83.38
68098;DHT22;54886;47.036;15.466;2023-11-21T03:35:42;5.86;83.67
68098;DHT22;54886;47.036;15.466;2023-11-21T03:38:10;5.90;83.83
68098;DHT22;54886;47.036;15.466;2023-11-21T03:40:35;5.93;83.97
68098;DHT22;54886;47.036;15.466;2023-11-21T03:43:00;5.90;83.06
68098;DHT22;54886;47.036;15.466;2023-11-21T03:45:26;5.93;83.36
68098;DHT22;54886;47.036;15.466;2023-11-21T03:47:51;5.90;83.05
68098;DHT22;54886;47.036;15.466;2023-11-21T03:50:16;5.93;83.63
68098;DHT22;54886;47.036;15.466;2023-11-21T03:52:42;5.93;84.45
68098;DHT22;54886;47.036;15.466;2023-11-21T03:55:08;5.94;84.04
68098;DHT22;54886;47.036;15.466;2023-11-21T03:57:33;5.96;84.22
68098;DHT22;54886;47.036;15.466;2023-11-21T03:59:59;5.94;84.09
68098;DHT22;54886;47.036;15.466;2023-11-21T04:02:24;5.97;85.04
68098;DHT22;54886;47.036;15.466;2023-11-21T04:04:51;5.99;84.22
68098;DHT22;54886;47.036;15.466;2023-11-21T04:07:17;5.96;85.35
68098;DHT22;54886;47.036;15.466;2023-11-21T04:09:42;6.00;85.01
68098;DHT22;54886;47.036;15.466;2023-11-21T04:12:08;6.02;84.63
68098;DHT22;54886;47.036;15.466;2023-11-21T04:14:36;6.02;84.83
68098;DHT22;54886;47.036;15.466;2023-11-21T04:17:02;6.02;84.74
68098;DHT22;54886;47.036;15.466;2023-11-21T04:19:29;6.02;84.30
68098;DHT22;54886;47.036;15.466;2023-11-21T04:21:54;6.02;84.61
68098;DHT22;54886;47.036;15.466;2023-11-21T04:24:20;6.03;84.71
68098;DHT22;54886;47.036;15.466;2023-11-21T04:26:45;6.03;85.11
68098;DHT22;54886;47.036;15.466;2023-11-21T04:29:11;6.04;85.87
68098;DHT22;54886;47.036;15.466;2023-11-21T04:31:36;6.03;86.38
68098;DHT22;54886;47.036;15.466;2023-11-21T04:34:02;6.00;86.23
68098;DHT22;54886;47.036;15.466;2023-11-21T04:36:29;6.04;85.31
68098;DHT22;54886;47.036;15.466;2023-11-21T04:38:56;6.04;85.21
68098;DHT22;54886;47.036;15.466;2023-11-21T04:41:21;6.06;85.40
68098;DHT22;54886;47.036;15.466;2023-11-21T04:43:46;6.04;85.30
68098;DHT22;54886;47.036;15.466;2023-11-21T04:46:12;6.04;85.16
68098;DHT22;54886;47.036;15.466;2023-11-21T04:48:38;6.06;84.95
68098;DHT22;54886;47.036;15.466;2023-11-21T04:51:03;6.03;84.34
68098;DHT22;54886;47.036;15.466;2023-11-21T04:53:29;6.03;84.26
68098;DHT22;54886;47.036;15.466;2023-11-21T04:55:55;6.03;83.88
68098;DHT22;54886;47.036;15.466;2023-11-21T04:58:20;6.03;84.25
68098;DHT22;54886;47.036;15.466;2023-11-21T05:00:46;6.02;84.14
68098;DHT22;54886;47.036;15.466;2023-11-21T05:03:11;6.04;83.54
68098;DHT22;54886;47.036;15.466;2023-11-21T05:05:37;6.03;84.80
68098;DHT22;54886;47.036;15.466;2023-11-21T05:08:02;6.04;84.90
68098;DHT22;54886;47.036;15.466;2023-11-21T05:10:28;6.07;85.06
68098;DHT22;54886;47.036;15.466;2023-11-21T05:12:54;6.07;84.69
68098;DHT22;54886;47.036;15.466;2023-11-21T05:15:21;6.09;84.98
68098;DHT22;54886;47.036;15.466;2023-11-21T05:17:46;6.09;85.15
68098;DHT22;54886;47.036;15.466;2023-11-21T05:20:15;6.06;85.10
68098;DHT22;54886;47.036;15.466;2023-11-21T05:22:48;6.09;85.68
68098;DHT22;54886;47.036;15.466;2023-11-21T05:25:14;6.09;85.03
68098;DHT22;54886;47.036;15.466;2023-11-21T05:27:40;6.09;84.68
68098;DHT22;54886;47.036;15.466;2023-11-21T05:30:06;6.07;85.18
68098;DHT22;54886;47.036;15.466;2023-11-21T05:32:34;6.10;85.18
68098;DHT22;54886;47.036;15.466;2023-11-21T05:35:00;6.09;84.38
68098;DHT22;54886;47.036;15.466;2023-11-21T05:37:26;6.09;84.91
68098;DHT22;54886;47.036;15.466;2023-11-21T05:39:53;6.10;85.76
68098;DHT22;54886;47.036;15.466;2023-11-21T05:42:19;6.11;85.72
68098;DHT22;54886;47.036;15.466;2023-11-21T05:44:46;6.11;86.00
68098;DHT22;54886;47.036;15.466;2023-11-21T05:47:11;6.14;86.02
68098;DHT22;54886;47.036;15.466;2023-11-21T05:49:38;6.14;85.73
68098;DHT22;54886;47.036;15.466;2023-11-21T05:52:04;6.14;85.06
68098;DHT22;54886;47.036;15.466;2023-11-21T05:54:30;6.14;85.49
68098;DHT22;54886;47.036;15.466;2023-11-21T05:56:55;6.13;85.89
68098;DHT22;54886;47.036;15.466;2023-11-21T05:59:21;6.17;85.87
68098;DHT22;54886;47.036;15.466;2023-11-21T06:01:46;6.13;85.70
68098;DHT22;54886;47.036;15.466;2023-11-21T06:04:12;6.17;85.30
68098;DHT22;54886;47.036;15.466;2023-11-21T06:06:38;6.13;84.70
68098;DHT22;54886;47.036;15.466;2023-11-21T06:09:04;6.14;84.54
68098;DHT22;54886;47.036;15.466;2023-11-21T06:11:31;6.14;84.37
68098;DHT22;54886;47.036;15.466;2023-11-21T06:13:57;6.16;84.18
68098;DHT22;54886;47.036;15.466;2023-11-21T06:16:23;6.14;85.48
68098;DHT22;54886;47.036;15.466;2023-11-21T06:18:49;6.14;85.19
68098;DHT22;54886;47.036;15.466;2023-11-21T06:21:14;6.16;86.10
68098;DHT22;54886;47.036;15.466;2023-11-21T06:23:41;6.16;85.37
68098;DHT22;54886;47.036;15.466;2023-11-21T06:26:07;6.17;85.41
68098;DHT22;54886;47.036;15.466;2023-11-21T06:28:34;6.18;84.54
68098;DHT22;54886;47.036;15.466;2023-11-21T06:31:00;6.21;85.57
68098;DHT22;54886;47.036;15.466;2023-11-21T06:33:32;6.18;86.19
68098;DHT22;54886;47.036;15.466;2023-11-21T06:35:57;6.20;86.40
68098;DHT22;54886;47.036;15.466;2023-11-21T06:38:23;6.21;86.63
68098;DHT22;54886;47.036;15.466;2023-11-21T06:40:48;6.20;85.63
68098;DHT22;54886;47.036;15.466;2023-11-21T06:43:14;6.20;85.96
68098;DHT22;54886;47.036;15.466;2023-11-21T06:45:40;6.21;85.32
68098;DHT22;54886;47.036;15.466;2023-11-21T06:48:06;6.20;84.71
68098;DHT22;54886;47.036;15.466;2023-11-21T06:50:31;6.21;84.89
68098;DHT22;54886;47.036;15.466;2023-11-21T06:52:57;6.20;84.71
68098;DHT22;54886;47.036;15.466;2023-11-21T06:55:22;6.22;85.45
68098;DHT22;54886;47.036;15.466;2023-11-21T06:57:47;6.22;85.33
68098;DHT22;54886;47.036;15.466;2023-11-21T07:00:15;6.22;85.97
68098;DHT22;54886;47.036;15.466;2023-11-21T07:02:43;6.24;85.50
68098;DHT22;54886;47.036;15.466;2023-11-21T07:05:09;6.25;85.07
68098;DHT22;54886;47.036;15.466;2023-11-21T07:07:34;6.24;85.53
68098;DHT22;54886;47.036;15.466;2023-11-21T07:10:01;6.30;85.90
68098;DHT22;54886;47.036;15.466;2023-11-21T07:12:29;6.30;86.22
68098;DHT22;54886;47.036;15.466;2023-11-21T07:14:55;6.32;86.34
68098;DHT22;54886;47.036;15.466;2023-11-21T07:17:20;6.32;86.13
68098;DHT22;54886;47.036;15.466;2023-11-21T07:19:48;6.37;86.10
68098;DHT22;54886;47.036;15.466;2023-11-21T07:22:14;6.37;86.46
68098;DHT22;54886;47.036;15.466;2023-11-21T07:24:40;6.41;86.16
68098;DHT22;54886;47.036;15.466;2023-11-21T07:27:05;6.40;86.55
68098;DHT22;54886;47.036;15.466;2023-11-21T07:29:31;6.41;86.52
68098;DHT22;54886;47.036;15.466;2023-11-21T07:31:56;6.44;86.28
68098;DHT22;54886;47.036;15.466;2023-11-21T07:34:22;6.45;86.07
68098;DHT22;54886;47.036;15.466;2023-11-21T07:36:47;6.45;85.45
68098;DHT22;54886;47.036;15.466;2023-11-21T07:39:13;6.45;85.39
68098;DHT22;54886;47.036;15.466;2023-11-21T07:41:41;6.48;85.67
68098;DHT22;54886;47.036;15.466;2023-11-21T07:44:10;6.51;85.93
68098;DHT22;54886;47.036;15.466;2023-11-21T07:46:36;6.52;85.49
68098;DHT22;54886;47.036;15.466;2023-11-21T07:49:01;6.52;85.72
68098;DHT22;54886;47.036;15.466;2023-11-21T07:51:26;6.55;85.88
68098;DHT22;54886;47.036;15.466;2023-11-21T07:53:52;6.58;87.57
68098;DHT22;54886;47.036;15.466;2023-11-21T07:56:17;6.62;87.00
68098;DHT22;54886;47.036;15.466;2023-11-21T07:58:43;6.65;86.54
68098;DHT22;54886;47.036;15.466;2023-11-21T08:01:08;6.71;86.98
68098;DHT22;54886;47.036;15.466;2023-11-21T08:03:33;6.73;86.70
68098;DHT22;54886;47.036;15.466;2023-11-21T08:05:59;6.79;87.45
68098;DHT22;54886;47.036;15.466;2023-11-21T08:08:25;6.77;86.33
68098;DHT22;54886;47.036;15.466;2023-11-21T08:10:51;6.85;85.76
68098;DHT22;54886;47.036;15.466;2023-11-21T08:13:26;6.83;84.61
68098;DHT22;54886;47.036;15.466;2023-11-21T08:15:56;6.85;84.18
68098;DHT22;54886;47.036;15.466;2023-11-21T08:18:22;6.89;84.71
68098;DHT22;54886;47.036;15.466;2023-11-21T08:20:48;6.93;85.45
68098;DHT22;54886;47.036;15.466;2023-11-21T08:23:16;6.97;85.16
68098;DHT22;54886;47.036;15.466;2023-11-21T08:25:44;6.97;85.39
68098;DHT22;54886;47.036;15.466;2023-11-21T08:28:10;7.01;85.98
68098;DHT22;54886;47.036;15.466;2023-11-21T08:30:35;7.04;85.25
68098;DHT22;54886;47.036;15.466;2023-11-21T08:33:01;7.05;85.70
68098;DHT22;54886;47.036;15.466;2023-11-21T08:35:28;7.10;86.52
68098;DHT22;54886;47.036;15.466;2023-11-21T08:37:53;7.14;86.54
68098;DHT22;54886;47.036;15.466;2023-11-21T08:40:20;7.20;87.01
68098;DHT22;54886;47.036;15.466;2023-11-21T08:42:46;7.25;87.03
68098;DHT22;54886;47.036;15.466;2023-11-21T08:45:13;7.32;87.13
68098;DHT22;54886;47.036;15.466;2023-11-21T08:47:39;7.32;87.21
68098;DHT22;54886;47.036;15.466;2023-11-21T08:50:07;7.38;87.73
68098;DHT22;54886;47.036;15.466;2023-11-21T08:52:35;7.42;87.36
68098;DHT22;54886;47.036;15.466;2023-11-21T08:55:02;7.42;87.91
68098;DHT22;54886;47.036;15.466;2023-11-21T08:57:36;7.48;88.08
68098;DHT22;54886;47.036;15.466;2023-11-21T09:00:03;7.51;87.99
68098;DHT22;54886;47.036;15.466;2023-11-21T09:02:33;7.55;87.78
68098;DHT22;54886;47.036;15.466;2023-11-21T09:04:59;7.59;87.81
68098;DHT22;54886;47.036;15.466;2023-11-21T09:07:24;7.63;87.86
68098;DHT22;54886;47.036;15.466;2023-11-21T09:09:50;7.70;88.96
68098;DHT22;54886;47.036;15.466;2023-11-21T09:12:16;7.77;89.19
68098;DHT22;54886;47.036;15.466;2023-11-21T09:14:42;7.77;89.52
68098;DHT22;54886;47.036;15.466;2023-11-21T09:17:09;7.86;89.47
68098;DHT22;54886;47.036;15.466;2023-11-21T09:19:38;7.89;89.41
68098;DHT22;54886;47.036;15.466;2023-11-21T09:22:04;7.93;89.38
68098;DHT22;54886;47.036;15.466;2023-11-21T09:24:33;7.94;88.76
68098;DHT22;54886;47.036;15.466;2023-11-21T09:26:58;7.98;88.40
68098;DHT22;54886;47.036;15.466;2023-11-21T09:29:28;8.04;89.12
68098;DHT22;54886;47.036;15.466;2023-11-21T09:31:54;8.07;88.99
68098;DHT22;54886;47.036;15.466;2023-11-21T09:34:23;8.13;89.06
68098;DHT22;54886;47.036;15.466;2023-11-21T09:36:48;8.15;88.33
68098;DHT22;54886;47.036;15.466;2023-11-21T09:39:14;8.18;88.06
68098;DHT22;54886;47.036;15.466;2023-11-21T09:41:43;8.18;87.41
68098;DHT22;54886;47.036;15.466;2023-11-21T09:44:13;8.23;87.69
68098;DHT22;54886;47.036;15.466;2023-11-21T09:46:42;8.24;87.42
68098;DHT22;54886;47.036;15.466;2023-11-21T09:49:09;8.30;88.25
68098;DHT22;54886;47.036;15.466;2023-11-21T09:51:39;8.31;87.79
68098;DHT22;54886;47.036;15.466;2023-11-21T09:54:07;8.34;87.87
68098;DHT22;54886;47.036;15.466;2023-11-21T09:56:34;8.38;87.80
68098;DHT22;54886;47.036;15.466;2023-11-21T09:59:01;8.40;87.77
68098;DHT22;54886;47.036;15.466;2023-11-21T10:01:32;8.40;87.40
68098;DHT22;54886;47.036;15.466;2023-11-21T10:03:58;8.41;87.15
68098;DHT22;54886;47.036;15.466;2023-11-21T10:06:24;8.45;87.39
68098;DHT22;54886;47.036;15.466;2023-11-21T10:08:53;8.46;87.17
68098;DHT22;54886;47.036;15.466;2023-11-21T10:11:19;8.52;86.53
68098;DHT22;54886;47.036;15.466;2023-11-21T10:13:46;8.53;86.25
68098;DHT22;54886;47.036;15.466;2023-11-21T10:16:14;8.56;86.23
68098;DHT22;54886;47.036;15.466;2023-11-21T10:18:41;8.60;86.24
68098;DHT22;54886;47.036;15.466;2023-11-21T10:21:07;8.63;86.73
68098;DHT22;54886;47.036;15.466;2023-11-21T10:23:34;8.62;86.07
68098;DHT22;54886;47.036;15.466;2023-11-21T10:26:00;8.65;86.04
68098;DHT22;54886;47.036;15.466;2023-11-21T10:28:26;8.66;86.03
68098;DHT22;54886;47.036;15.466;2023-11-21T10:30:51;8.69;86.84
68098;DHT22;54886;47.036;15.466;2023-11-21T10:33:27;8.69;86.08
68098;DHT22;54886;47.036;15.466;2023-11-21T10:35:52;8.69;85.79
68098;DHT22;54886;47.036;15.466;2023-11-21T10:38:20;8.72;86.25
68098;DHT22;54886;47.036;15.466;2023-11-21T10:40:50;8.76;86.10
68098;DHT22;54886;47.036;15.466;2023-11-21T10:43:16;8.75;86.56
68098;DHT22;54886;47.036;15.466;2023-11-21T10:45:43;8.77;86.38
68098;DHT22;54886;47.036;15.466;2023-11-21T10:48:15;8.80;86.06
68098;DHT22;54886;47.036;15.466;2023-11-21T10:50:41;8.80;85.91
68098;DHT22;54886;47.036;15.466;2023-11-21T10:53:06;8.81;86.16
68098;DHT22;54886;47.036;15.466;2023-11-21T10:55:33;8.83;85.81
68098;DHT22;54886;47.036;15.466;2023-11-21T10:58:00;8.84;85.65
68098;DHT22;54886;47.036;15.466;2023-11-21T11:00:28;8.87;85.19
68098;DHT22;54886;47.036;15.466;2023-11-21T11:02:54;8.87;85.28
68098;DHT22;54886;47.036;15.466;2023-11-21T11:05:21;8.88;85.24
68098;DHT22;54886;47.036;15.466;2023-11-21T11:07:50;8.90;85.52
68098;DHT22;54886;47.036;15.466;2023-11-21T11:10:20;8.90;84.76
68098;DHT22;54886;47.036;15.466;2023-11-21T11:12:48;8.91;84.58
68098;DHT22;54886;47.036;15.466;2023-11-21T11:15:15;8.93;85.16
68098;DHT22;54886;47.036;15.466;2023-11-21T11:17:41;8.94;85.04
68098;DHT22;54886;47.036;15.466;2023-11-21T11:20:08;8.97;84.83
68098;DHT22;54886;47.036;15.466;2023-11-21T11:34:46;9.00;84.93
68098;DHT22;54886;47.036;15.466;2023-11-21T11:37:15;9.03;84.88
68098;DHT22;54886;47.036;15.466;2023-11-21T11:39:42;9.03;84.89
68098;DHT22;54886;47.036;15.466;2023-11-21T11:42:13;9.04;84.48
68098;DHT22;54886;47.036;15.466;2023-11-21T11:50:03;9.07;85.18
68098;DHT22;54886;47.036;15.466;2023-11-21T11:52:54;9.06;84.64
68098;DHT22;54886;47.036;15.466;2023-11-21T11:55:21;9.07;84.68
68098;DHT22;54886;47.036;15.466;2023-11-21T11:57:50;9.10;84.03
68098;DHT22;54886;47.036;15.466;2023-11-21T12:02:51;9.11;84.26
68098;DHT22;54886;47.036;15.466;2023-11-21T12:05:18;9.11;84.55
68098;DHT22;54886;47.036;15.466;2023-11-21T12:07:45;9.14;84.62
68098;DHT22;54886;47.036;15.466;2023-11-21T12:10:18;9.14;84.93
68098;DHT22;54886;47.036;15.466;2023-11-21T12:12:45;9.15;84.05
68098;DHT22;54886;47.036;15.466;2023-11-21T12:15:11;9.15;84.09
68098;DHT22;54886;47.036;15.466;2023-11-21T12:17:38;9.18;84.16
68098;DHT22;54886;47.036;15.466;2023-11-21T12:20:04;9.18;83.78
68098;DHT22;54886;47.036;15.466;2023-11-21T12:22:31;9.23;83.67
68098;DHT22;54886;47.036;15.466;2023-11-21T12:24:57;9.25;84.24
68098;DHT22;54886;47.036;15.466;2023-11-21T12:27:22;9.25;84.14
68098;DHT22;54886;47.036;15.466;2023-11-21T12:29:47;9.25;84.45
68098;DHT22;54886;47.036;15.466;2023-11-21T12:32:13;9.25;84.43
68098;DHT22;54886;47.036;15.466;2023-11-21T12:34:40;9.25;84.10
68098;DHT22;54886;47.036;15.466;2023-11-21T12:37:06;9.28;84.00
68098;DHT22;54886;47.036;15.466;2023-11-21T12:39:31;9.31;83.29
68098;DHT22;54886;47.036;15.466;2023-11-21T12:41:57;9.32;83.82
68098;DHT22;54886;47.036;15.466;2023-11-21T12:44:22;9.32;83.73
68098;DHT22;54886;47.036;15.466;2023-11-21T12:46:49;9.34;83.06
68098;DHT22;54886;47.036;15.466;2023-11-21T12:49:15;9.32;83.54
68098;DHT22;54886;47.036;15.466;2023-11-21T12:51:45;9.34;83.34
68098;DHT22;54886;47.036;15.466;2023-11-21T12:54:12;9.35;83.32
68098;DHT22;54886;47.036;15.466;2023-11-21T12:56:38;9.36;82.91
68098;DHT22;54886;47.036;15.466;2023-11-21T12:59:04;9.38;83.20
68098;DHT22;54886;47.036;15.466;2023-11-21T13:01:30;9.35;83.43
68098;DHT22;54886;47.036;15.466;2023-11-21T13:03:59;9.36;83.50
68098;DHT22;54886;47.036;15.466;2023-11-21T13:06:26;9.38;83.42
68098;DHT22;54886;47.036;15.466;2023-11-21T13:08:52;9.36;82.63
68098;DHT22;54886;47.036;15.466;2023-11-21T13:11:17;9.38;83.31
68098;DHT22;54886;47.036;15.466;2023-11-21T13:13:43;9.36;82.99
68098;DHT22;54886;47.036;15.466;2023-11-21T13:16:09;9.38;83.38
68098;DHT22;54886;47.036;15.466;2023-11-21T13:18:35;9.38;82.84
68098;DHT22;54886;47.036;15.466;2023-11-21T13:21:05;9.39;83.35
68098;DHT22;54886;47.036;15.466;2023-11-21T13:23:36;9.41;83.38
68098;DHT22;54886;47.036;15.466;2023-11-21T13:26:03;9.39;83.22
68098;DHT22;54886;47.036;15.466;2023-11-21T13:28:29;9.41;82.19
68098;DHT22;54886;47.036;15.466;2023-11-21T13:30:58;9.42;83.12
68098;DHT22;54886;47.036;15.466;2023-11-21T13:33:28;9.43;83.33
68098;DHT22;54886;47.036;15.466;2023-11-21T13:35:54;9.45;82.71
68098;DHT22;54886;47.036;15.466;2023-11-21T13:38:21;9.42;82.82
68098;DHT22;54886;47.036;15.466;2023-11-21T13:40:53;9.43;83.47
68098;DHT22;54886;47.036;15.466;2023-11-21T13:43:24;9.42;82.93
68098;DHT22;54886;47.036;15.466;2023-11-21T13:45:52;9.43;82.48
68098;DHT22;54886;47.036;15.466;2023-11-21T13:48:27;9.48;82.33
68098;DHT22;54886;47.036;15.466;2023-11-21T13:51:15;9.43;82.40
68098;DHT22;54886;47.036;15.466;2023-11-21T13:53:46;9.45;83.20
68098;DHT22;54886;47.036;15.466;2023-11-21T13:56:19;9.42;83.10
68098;DHT22;54886;47.036;15.466;2023-11-21T13:58:52;9.42;82.50
68098;DHT22;54886;47.036;15.466;2023-11-21T14:01:18;9.42;83.09
68098;DHT22;54886;47.036;15.466;2023-11-21T14:04:10;9.38;82.49
68098;DHT22;54886;47.036;15.466;2023-11-21T14:06:42;9.39;83.62
68098;DHT22;54886;47.036;15.466;2023-11-21T14:09:19;9.41;82.74
68098;DHT22;54886;47.036;15.466;2023-11-21T14:11:53;9.39;83.00
68098;DHT22;54886;47.036;15.466;2023-11-21T14:14:22;9.38;82.54
68098;DHT22;54886;47.036;15.466;2023-11-21T14:16:47;9.38;83.10
68098;DHT22;54886;47.036;15.466;2023-11-21T14:19:13;9.38;83.34
68098;DHT22;54886;47.036;15.466;2023-11-21T14:21:42;9.36;82.83
68098;DHT22;54886;47.036;15.466;2023-11-21T14:24:09;9.36;82.80
68098;DHT22;54886;47.036;15.466;2023-11-21T14:26:35;9.34;82.91
68098;DHT22;54886;47.036;15.466;2023-11-21T14:29:00;9.32;82.83
68098;DHT22;54886;47.036;15.466;2023-11-21T14:31:26;9.32;82.41
68098;DHT22;54886;47.036;15.466;2023-11-21T14:33:54;9.31;82.55
68098;DHT22;54886;47.036;15.466;2023-11-21T14:36:19;9.31;82.69
68098;DHT22;54886;47.036;15.466;2023-11-21T14:38:45;9.30;82.70
68098;DHT22;54886;47.036;15.466;2023-11-21T14:41:10;9.28;82.81
68098;DHT22;54886;47.036;15.466;2023-11-21T14:43:36;9.21;82.92
68098;DHT22;54886;47.036;15.466;2023-11-21T14:46:03;9.24;82.49
68098;DHT22;54886;47.036;15.466;2023-11-21T14:48:31;9.23;82.62
68098;DHT22;54886;47.036;15.466;2023-11-21T14:51:13;9.20;82.48
68098;DHT22;54886;47.036;15.466;2023-11-21T14:53:47;9.15;82.50
68098;DHT22;54886;47.036;15.466;2023-11-21T14:56:22;9.11;82.73
68098;DHT22;54886;47.036;15.466;2023-11-21T14:58:58;9.11;82.39
68098;DHT22;54886;47.036;15.466;2023-11-21T15:01:31;9.08;82.52
68098;DHT22;54886;47.036;15.466;2023-11-21T15:04:17;9.03;82.83
68098;DHT22;54886;47.036;15.466;2023-11-21T15:07:03;8.99;82.80
68098;DHT22;54886;47.036;15.466;2023-11-21T15:09:29;8.94;82.72
68098;DHT22;54886;47.036;15.466;2023-11-21T15:11:58;8.94;82.37
68098;DHT22;54886;47.036;15.466;2023-11-21T15:14:34;8.93;82.50
68098;DHT22;54886;47.036;15.466;2023-11-21T15:17:01;8.91;82.14
68098;DHT22;54886;47.036;15.466;2023-11-21T15:19:28;8.90;82.31
68098;DHT22;54886;47.036;15.466;2023-11-21T15:21:56;8.90;82.47
68098;DHT22;54886;47.036;15.466;2023-11-21T15:24:21;8.87;82.42
68098;DHT22;54886;47.036;15.466;2023-11-21T15:26:47;8.84;82.98
68098;DHT22;54886;47.036;15.466;2023-11-21T15:29:12;8.81;83.29
68098;DHT22;54886;47.036;15.466;2023-11-21T15:31:39;8.80;82.84
68098;DHT22;54886;47.036;15.466;2023-11-21T15:34:09;8.77;83.32
68098;DHT22;54886;47.036;15.466;2023-11-21T15:36:34;8.77;83.13
68098;DHT22;54886;47.036;15.466;2023-11-21T15:39:00;8.76;83.28
68098;DHT22;54886;47.036;15.466;2023-11-21T15:41:25;8.76;83.23
68098;DHT22;54886;47.036;15.466;2023-11-21T15:43:51;8.76;83.22
68098;DHT22;54886;47.036;15.466;2023-11-21T15:46:16;8.72;83.42
68098;DHT22;54886;47.036;15.466;2023-11-21T15:48:41;8.70;83.49